Terminal Aerodrome Forecast
Issued by NWS Rapid City, SD

Home | Current Version | Previous Version | Graphics & Text | Print | Product List | Glossary On
Versions: 1 2 3 4 5 6 7 8 9 10 11 12 13 14 15 16 17 18 19 20 21 22 23 24 25 26 27 28 29 30 31 32 33 34
148
FTUS43 KUNR 210703 AAA
TAFRAP
TAF AMD
KRAP 210703Z 2107/2206 06015KT 3SM -RASN OVC015
     FM211000 08011KT 1SM -SN OVC008
     FM211300 10013KT 4SM -SN OVC003
     FM211600 11013KT P6SM OVC007
     FM212300 14012KT P6SM OVC015=

USA.gov is the U.S. government's official web portal to all federal, state and local government web resources and services.